Shotley Gate, United Kingdom
Current Conditions -  °F | °C
As of 7:50 PM on Wednesday 28 Jan 2015 (Local Time) from EGUW Reporting Station
Clear Clear  
Wind Chill: 25°   Ceiling: Unl
Heat Index: 36°   Visibility: 6mi
Dew Point: 28°   Wind: 21mph
Humidity: 75%   Direction: 260°W
Pressure: 29.5"   Gusts: NA
Location:  51.96°N, 1.27°E
Report Text: EGUW 281950Z 26018KT CAVOK 02/M02 Q0999 BLU NOSIG
Loading
Personal Weather Stations






























Interactive Weather Map New forecast layout! Learn more

10-Day Weather Forecast

Advertisements
Track Severe Weather on mobile